Time;durP1;ratioP1;P1;durP2;ratioP2;P2;SDS_P1;SDS_P2;PMS_P1;PMS_P2;Temp;Humidity;BMP_temperature;BMP_pressure;BME280_temperature;BME280_humidity;BME280_pressure;Samples;Min_cycle;Max_cycle;Signal;HPM_P1;HPM_P2
2022/01/31 00:01:55;;;;;;;19.85;3.78;;;;;;;;;;4911166;29;20035;-84
2022/01/31 00:04:21;;;;;;;20.20;3.63;;;;;;;;;;4918366;29;20057;-81
2022/01/31 00:06:48;;;;;;;20.25;3.92;;;;;;;;;;4907400;29;20024;-80
2022/01/31 00:09:15;;;;;;;19.33;3.22;;;;;;;;;;4915843;29;20032;-82
2022/01/31 00:11:42;;;;;;;17.67;3.58;;;;;;;;;;4926776;29;20060;-80
2022/01/31 00:14:16;;;;;;;29.38;3.35;;;;;;;;;;4913405;29;20051;-79
2022/01/31 00:16:41;;;;;;;20.85;3.33;;;;;;;;;;4928151;29;20032;-80
2022/01/31 00:19:07;;;;;;;29.17;4.25;;;;;;;;;;4910487;29;20035;-82
2022/01/31 00:21:33;;;;;;;18.13;3.00;;;;;;;;;;4921447;29;20028;-85
2022/01/31 00:23:59;;;;;;;25.42;3.60;;;;;;;;;;4940779;29;20029;-81
2022/01/31 00:26:25;;;;;;;26.77;3.53;;;;;;;;;;4939827;29;20027;-81
2022/01/31 00:28:50;;;;;;;21.50;3.38;;;;;;;;;;4939709;29;20080;-85
2022/01/31 00:31:16;;;;;;;21.48;3.28;;;;;;;;;;4928265;29;20028;-81
2022/01/31 00:33:41;;;;;;;21.02;3.65;;;;;;;;;;4930996;29;20020;-79
2022/01/31 00:36:07;;;;;;;20.23;4.38;;;;;;;;;;4926658;29;20371;-78
2022/01/31 00:38:32;;;;;;;19.60;4.22;;;;;;;;;;4887425;29;20049;-78
2022/01/31 00:40:57;;;;;;;18.88;3.08;;;;;;;;;;4896516;29;20076;-79
2022/01/31 00:43:23;;;;;;;29.08;4.70;;;;;;;;;;4924664;29;20039;-79
2022/01/31 00:45:59;;;;;;;23.67;3.55;;;;;;;;;;4925385;29;20022;-79
2022/01/31 00:48:26;;;;;;;23.42;4.00;;;;;;;;;;4924509;29;20032;-79
2022/01/31 00:50:52;;;;;;;23.67;3.47;;;;;;;;;;4925418;29;20070;-80
2022/01/31 00:53:17;;;;;;;24.27;4.05;;;;;;;;;;4919398;29;20032;-80
2022/01/31 00:55:42;;;;;;;23.35;4.47;;;;;;;;;;4908983;29;20031;-80
2022/01/31 00:58:08;;;;;;;25.77;3.97;;;;;;;;;;4919719;29;20035;-79
2022/01/31 01:00:33;;;;;;;27.35;4.75;;;;;;;;;;4906837;29;20032;-80
2022/01/31 01:02:59;;;;;;;34.67;5.30;;;;;;;;;;4919866;29;20051;-78
2022/01/31 01:05:24;;;;;;;18.00;3.03;;;;;;;;;;4925021;29;20023;-79
2022/01/31 01:07:49;;;;;;;11.32;2.25;;;;;;;;;;4918452;29;20103;-78
2022/01/31 01:10:15;;;;;;;19.17;3.03;;;;;;;;;;4926881;29;20036;-79
2022/01/31 01:12:42;;;;;;;16.73;4.20;;;;;;;;;;4927275;29;20610;-78
2022/01/31 01:15:07;;;;;;;19.70;3.08;;;;;;;;;;4910900;29;20024;-79
2022/01/31 01:17:33;;;;;;;15.18;2.55;;;;;;;;;;4925058;29;20019;-82
2022/01/31 01:20:01;;;;;;;18.23;3.63;;;;;;;;;;4927354;29;20024;-83
2022/01/31 01:22:27;;;;;;;21.73;3.17;;;;;;;;;;4939600;29;20023;-81
2022/01/31 01:24:52;;;;;;;23.65;3.70;;;;;;;;;;4923170;29;20028;-82
2022/01/31 01:27:20;;;;;;;22.38;3.70;;;;;;;;;;4921868;29;20052;-82
2022/01/31 01:29:46;;;;;;;18.90;3.97;;;;;;;;;;4939153;29;20020;-82
2022/01/31 01:32:11;;;;;;;28.95;3.72;;;;;;;;;;4951071;29;20020;-82
2022/01/31 01:34:37;;;;;;;24.88;3.75;;;;;;;;;;4939523;29;20167;-82
2022/01/31 01:37:03;;;;;;;20.15;2.90;;;;;;;;;;4939268;29;20028;-82
2022/01/31 01:39:29;;;;;;;19.65;3.72;;;;;;;;;;4936595;29;20048;-82
2022/01/31 01:41:55;;;;;;;26.50;3.70;;;;;;;;;;4926807;29;20027;-82
2022/01/31 01:44:38;;;;;;;22.33;3.20;;;;;;;;;;4923373;29;20043;-82
2022/01/31 01:47:03;;;;;;;20.98;2.78;;;;;;;;;;4922354;29;20079;-82
2022/01/31 01:49:29;;;;;;;29.83;4.28;;;;;;;;;;4938298;29;20032;-82
2022/01/31 01:51:55;;;;;;;35.92;4.05;;;;;;;;;;4938395;29;20028;-82
2022/01/31 01:54:21;;;;;;;31.80;4.30;;;;;;;;;;4938571;29;20048;-83
2022/01/31 01:56:46;;;;;;;27.55;3.75;;;;;;;;;;4936315;29;20020;-80
2022/01/31 01:59:12;;;;;;;27.42;3.80;;;;;;;;;;4939366;29;20075;-83
2022/01/31 02:01:38;;;;;;;16.98;2.50;;;;;;;;;;4931454;29;20164;-82
2022/01/31 02:04:04;;;;;;;19.83;3.25;;;;;;;;;;4938106;29;20028;-82
2022/01/31 02:06:29;;;;;;;20.60;3.17;;;;;;;;;;4935203;29;20030;-80
2022/01/31 02:08:55;;;;;;;23.30;3.58;;;;;;;;;;4926397;29;20096;-79
2022/01/31 02:11:21;;;;;;;34.33;4.00;;;;;;;;;;4912716;29;20564;-81
2022/01/31 02:13:46;;;;;;;27.63;3.47;;;;;;;;;;4925402;29;20009;-82
2022/01/31 02:16:11;;;;;;;25.63;4.55;;;;;;;;;;4937355;29;20012;-81
2022/01/31 02:18:44;;;;;;;23.98;3.22;;;;;;;;;;4938610;29;20004;-82
2022/01/31 02:21:09;;;;;;;33.58;3.60;;;;;;;;;;4923740;29;20540;-78
2022/01/31 02:23:35;;;;;;;22.73;3.20;;;;;;;;;;4924676;29;20099;-77
2022/01/31 02:26:02;;;;;;;20.90;3.33;;;;;;;;;;4919563;29;20034;-77
2022/01/31 02:28:30;;;;;;;27.05;3.72;;;;;;;;;;4925084;29;20051;-78
2022/01/31 02:30:55;;;;;;;20.95;3.92;;;;;;;;;;4920260;29;20054;-77
2022/01/31 02:33:21;;;;;;;31.75;4.35;;;;;;;;;;4925519;29;20059;-79
2022/01/31 02:35:55;;;;;;;23.40;4.03;;;;;;;;;;4927461;29;20020;-77
2022/01/31 02:38:20;;;;;;;32.80;3.83;;;;;;;;;;4926753;29;20212;-79
2022/01/31 02:40:45;;;;;;;25.25;4.25;;;;;;;;;;4924993;29;20442;-78
2022/01/31 02:43:12;;;;;;;23.38;3.72;;;;;;;;;;4911925;29;20027;-77
2022/01/31 02:45:37;;;;;;;21.13;2.95;;;;;;;;;;4925174;29;20020;-78
2022/01/31 02:48:03;;;;;;;24.80;4.30;;;;;;;;;;4911358;29;20127;-77
2022/01/31 02:50:29;;;;;;;25.35;4.03;;;;;;;;;;4923366;29;20020;-78
2022/01/31 02:53:10;;;;;;;22.60;3.53;;;;;;;;;;4921397;29;20051;-77
2022/01/31 02:55:36;;;;;;;20.88;3.20;;;;;;;;;;4926491;29;20104;-78
2022/01/31 02:58:01;;;;;;;24.88;3.97;;;;;;;;;;4925005;29;20040;-78
2022/01/31 03:00:26;;;;;;;33.97;4.65;;;;;;;;;;4925970;29;20076;-77
2022/01/31 03:02:52;;;;;;;23.58;3.35;;;;;;;;;;4926301;29;20024;-78
2022/01/31 03:05:17;;;;;;;27.77;4.95;;;;;;;;;;4926680;29;20022;-78
2022/01/31 03:07:42;;;;;;;24.75;3.20;;;;;;;;;;4916773;29;20035;-79
2022/01/31 03:10:08;;;;;;;35.28;5.18;;;;;;;;;;4884852;29;1099587;-79
2022/01/31 03:12:33;;;;;;;20.65;3.67;;;;;;;;;;4925891;29;20028;-79
2022/01/31 03:14:58;;;;;;;19.60;3.00;;;;;;;;;;4916276;29;20032;-79
2022/01/31 03:17:24;;;;;;;20.17;2.78;;;;;;;;;;4921231;29;20437;-78
2022/01/31 03:19:53;;;;;;;29.60;3.97;;;;;;;;;;4920806;29;20030;-79
2022/01/31 03:22:20;;;;;;;21.60;3.50;;;;;;;;;;4926769;29;20048;-78
2022/01/31 03:24:45;;;;;;;20.40;3.70;;;;;;;;;;4907032;29;20031;-81
2022/01/31 03:27:10;;;;;;;30.10;3.00;;;;;;;;;;4909230;29;20478;-83
2022/01/31 03:29:36;;;;;;;26.05;3.03;;;;;;;;;;4911374;29;20370;-86
2022/01/31 03:32:01;;;;;;;19.27;3.47;;;;;;;;;;4915137;29;20071;-87
2022/01/31 03:34:26;;;;;;;24.05;4.10;;;;;;;;;;4924838;29;20016;-82
2022/01/31 03:36:52;;;;;;;31.05;3.88;;;;;;;;;;4938784;29;20024;-83
2022/01/31 03:39:17;;;;;;;29.83;4.32;;;;;;;;;;4925726;29;20088;-79
2022/01/31 03:41:43;;;;;;;28.48;3.13;;;;;;;;;;4926244;29;20020;-80
2022/01/31 03:44:09;;;;;;;19.67;3.08;;;;;;;;;;4939844;29;20027;-81
2022/01/31 03:46:35;;;;;;;17.17;3.42;;;;;;;;;;4942996;29;20008;-80
2022/01/31 03:49:00;;;;;;;26.80;3.53;;;;;;;;;;4939361;29;20036;-81
2022/01/31 03:51:26;;;;;;;29.30;4.47;;;;;;;;;;4928038;29;20027;-84
2022/01/31 03:53:51;;;;;;;21.48;4.00;;;;;;;;;;4932512;29;20016;-83
2022/01/31 03:56:16;;;;;;;21.17;3.47;;;;;;;;;;4926110;29;20020;-83
2022/01/31 03:58:42;;;;;;;27.42;3.67;;;;;;;;;;4919194;29;20043;-85
2022/01/31 04:01:07;;;;;;;15.70;3.35;;;;;;;;;;4909163;29;20020;-82
2022/01/31 04:03:34;;;;;;;32.78;4.38;;;;;;;;;;4923128;29;20042;-82
2022/01/31 04:05:59;;;;;;;24.60;2.95;;;;;;;;;;4919937;29;20027;-80
2022/01/31 04:08:24;;;;;;;21.70;3.45;;;;;;;;;;4925608;29;20016;-79
2022/01/31 04:10:50;;;;;;;32.22;4.65;;;;;;;;;;4920478;29;20080;-86
2022/01/31 04:13:16;;;;;;;26.63;3.75;;;;;;;;;;4911381;29;20028;-86
2022/01/31 04:15:42;;;;;;;25.58;4.00;;;;;;;;;;4911619;29;20044;-79
2022/01/31 04:18:07;;;;;;;40.60;4.28;;;;;;;;;;4924328;29;20036;-85
2022/01/31 04:20:32;;;;;;;21.17;2.78;;;;;;;;;;4893828;29;20028;-87
2022/01/31 04:23:07;;;;;;;23.35;4.32;;;;;;;;;;4907395;29;20070;-85
2022/01/31 04:25:54;;;;;;;22.33;3.72;;;;;;;;;;4933235;29;20027;-79
2022/01/31 04:28:23;;;;;;;18.38;3.22;;;;;;;;;;4931300;29;20020;-78
2022/01/31 04:30:58;;;;;;;;;;;;;;;;;;4927487;29;20024;-80
2022/01/31 04:33:24;;;;;;;24.13;4.10;;;;;;;;;;4921112;29;19907;-79
2022/01/31 04:35:49;;;;;;;17.83;3.22;;;;;;;;;;4914523;29;20115;-80
2022/01/31 04:38:14;;;;;;;30.63;3.90;;;;;;;;;;4918059;29;20024;-80
2022/01/31 04:40:40;;;;;;;26.38;3.72;;;;;;;;;;4918354;29;20071;-77
2022/01/31 04:43:05;;;;;;;24.20;3.28;;;;;;;;;;4926463;29;20012;-80
2022/01/31 04:45:30;;;;;;;24.70;4.40;;;;;;;;;;4926424;29;20059;-79
2022/01/31 04:47:56;;;;;;;18.83;4.15;;;;;;;;;;4908731;29;20020;-77
2022/01/31 04:50:21;;;;;;;19.55;3.05;;;;;;;;;;4923599;29;20024;-78
2022/01/31 04:52:46;;;;;;;25.45;4.78;;;;;;;;;;4926350;29;20386;-77
2022/01/31 04:55:12;;;;;;;23.50;3.63;;;;;;;;;;4931854;29;20027;-80
2022/01/31 04:57:38;;;;;;;31.80;4.07;;;;;;;;;;4931684;29;20031;-81
2022/01/31 05:00:04;;;;;;;19.92;3.95;;;;;;;;;;4920540;29;20028;-81
2022/01/31 05:02:30;;;;;;;20.75;4.38;;;;;;;;;;4932986;29;20012;-80
2022/01/31 05:04:55;;;;;;;24.10;4.18;;;;;;;;;;4917645;29;20079;-80
2022/01/31 05:07:21;;;;;;;20.33;2.75;;;;;;;;;;4930699;29;20017;-81
2022/01/31 05:09:47;;;;;;;20.55;3.78;;;;;;;;;;4932967;29;20079;-80
2022/01/31 05:12:12;;;;;;;27.65;3.92;;;;;;;;;;4932105;29;20377;-78
2022/01/31 05:14:37;;;;;;;16.63;3.28;;;;;;;;;;4927461;29;20027;-81
2022/01/31 05:17:02;;;;;;;23.63;4.10;;;;;;;;;;4928133;29;20501;-81
2022/01/31 05:19:28;;;;;;;23.15;4.05;;;;;;;;;;4927894;29;20016;-79
2022/01/31 05:21:53;;;;;;;21.40;3.78;;;;;;;;;;4906796;29;20028;-79
2022/01/31 05:24:18;;;;;;;18.55;3.80;;;;;;;;;;4904653;29;20055;-78
2022/01/31 05:26:43;;;;;;;22.90;3.58;;;;;;;;;;4922299;29;20052;-79
2022/01/31 05:29:09;;;;;;;22.00;3.90;;;;;;;;;;4916118;29;20054;-79
2022/01/31 05:31:34;;;;;;;26.88;3.08;;;;;;;;;;4913965;29;20024;-78
2022/01/31 05:33:59;;;;;;;27.27;3.30;;;;;;;;;;4923198;29;20026;-79
2022/01/31 05:36:25;;;;;;;22.02;3.47;;;;;;;;;;4924512;29;20048;-79
2022/01/31 05:38:50;;;;;;;20.92;3.38;;;;;;;;;;4908872;29;20028;-78
2022/01/31 05:41:19;;;;;;;22.75;3.90;;;;;;;;;;4921539;29;20401;-79
2022/01/31 05:43:47;;;;;;;25.20;4.05;;;;;;;;;;4911491;29;20053;-80
2022/01/31 05:46:12;;;;;;;18.90;3.50;;;;;;;;;;4904826;29;20080;-79
2022/01/31 05:48:38;;;;;;;27.08;3.88;;;;;;;;;;4922012;29;20028;-79
2022/01/31 05:51:03;;;;;;;27.05;4.45;;;;;;;;;;4908938;29;20031;-79
2022/01/31 05:53:30;;;;;;;22.27;3.30;;;;;;;;;;4921709;29;20023;-82
2022/01/31 05:55:59;;;;;;;19.38;4.10;;;;;;;;;;4940835;29;20008;-82
2022/01/31 05:58:26;;;;;;;18.52;3.17;;;;;;;;;;4937242;29;20035;-86
2022/01/31 06:00:52;;;;;;;21.73;4.00;;;;;;;;;;4925455;29;20055;-80
2022/01/31 06:03:17;;;;;;;17.67;3.25;;;;;;;;;;4906270;29;20316;-81
2022/01/31 06:05:42;;;;;;;24.55;3.67;;;;;;;;;;4920380;29;20425;-85
2022/01/31 06:08:07;;;;;;;15.57;3.33;;;;;;;;;;4906330;29;20024;-86
2022/01/31 06:10:35;;;;;;;26.50;3.38;;;;;;;;;;4920694;29;20425;-85
2022/01/31 06:13:00;;;;;;;16.73;4.35;;;;;;;;;;4921028;29;20028;-83
2022/01/31 06:15:26;;;;;;;18.70;3.67;;;;;;;;;;4921970;29;20051;-84
2022/01/31 06:17:51;;;;;;;21.30;5.63;;;;;;;;;;4924683;29;20088;-85
2022/01/31 06:20:16;;;;;;;23.75;4.07;;;;;;;;;;4921912;29;20036;-85
2022/01/31 06:22:50;;;;;;;21.98;3.75;;;;;;;;;;4920566;29;20021;-83
2022/01/31 06:25:16;;;;;;;20.15;3.55;;;;;;;;;;4915297;29;20101;-84
2022/01/31 06:27:41;;;;;;;19.50;4.03;;;;;;;;;;4915571;29;20047;-83
2022/01/31 06:30:07;;;;;;;16.50;3.90;;;;;;;;;;4915465;29;20024;-85
2022/01/31 06:32:33;;;;;;;66.63;26.73;;;;;;;;;;4901538;29;20020;-86
2022/01/31 06:34:58;;;;;;;21.58;4.85;;;;;;;;;;4918527;29;20056;-83
2022/01/31 06:37:23;;;;;;;23.48;3.50;;;;;;;;;;4915583;29;20393;-83
2022/01/31 06:39:49;;;;;;;19.23;3.63;;;;;;;;;;4916351;29;20031;-80
2022/01/31 06:42:15;;;;;;;28.55;3.85;;;;;;;;;;4922163;29;20389;-79
2022/01/31 06:44:40;;;;;;;22.25;4.50;;;;;;;;;;4923783;29;20474;-80
2022/01/31 06:47:06;;;;;;;25.17;4.88;;;;;;;;;;4915714;29;20091;-81
2022/01/31 06:49:32;;;;;;;15.77;3.22;;;;;;;;;;4937183;29;20036;-82
2022/01/31 06:51:58;;;;;;;21.75;3.60;;;;;;;;;;4918762;29;20013;-82
2022/01/31 06:54:23;;;;;;;17.00;4.97;;;;;;;;;;4910559;29;20031;-80
2022/01/31 06:56:49;;;;;;;21.92;3.58;;;;;;;;;;4919629;29;20031;-79
2022/01/31 06:59:14;;;;;;;17.98;2.95;;;;;;;;;;4927759;29;20024;-80
2022/01/31 07:01:39;;;;;;;22.80;3.17;;;;;;;;;;4923400;29;20198;-81
2022/01/31 07:04:08;;;;;;;29.38;3.67;;;;;;;;;;4929907;29;20032;-80
2022/01/31 07:06:36;;;;;;;19.13;2.88;;;;;;;;;;4915214;29;20020;-81
2022/01/31 07:09:02;;;;;;;23.85;3.22;;;;;;;;;;4929141;29;20032;-82
2022/01/31 07:11:35;;;;;;;17.30;2.95;;;;;;;;;;4913047;29;20035;-82
2022/01/31 07:14:04;;;;;;;20.65;2.88;;;;;;;;;;4927646;29;20028;-81
2022/01/31 07:16:29;;;;;;;;;;;;;;;;;;4926999;29;20497;-80
2022/01/31 07:19:07;;;;;;;15.38;4.03;;;;;;;;;;4925180;29;19907;-81
2022/01/31 07:21:46;;;;;;;11.73;3.87;;;;;;;;;;4911299;29;20024;-82
2022/01/31 07:24:23;;;;;;;21.17;4.10;;;;;;;;;;4923889;29;20255;-82
2022/01/31 07:26:49;;;;;;;22.52;3.35;;;;;;;;;;4912053;29;20036;-80
2022/01/31 07:29:15;;;;;;;19.60;3.33;;;;;;;;;;4924325;29;20083;-80
2022/01/31 07:31:41;;;;;;;12.30;2.67;;;;;;;;;;4901015;29;20034;-80
2022/01/31 07:34:07;;;;;;;19.23;3.50;;;;;;;;;;4919218;29;20103;-79
2022/01/31 07:36:32;;;;;;;15.60;4.07;;;;;;;;;;4921139;29;20048;-79
2022/01/31 07:38:57;;;;;;;14.40;3.83;;;;;;;;;;4928850;29;20016;-79
2022/01/31 07:41:23;;;;;;;21.27;4.10;;;;;;;;;;4927373;29;20028;-79
2022/01/31 07:43:48;;;;;;;16.83;3.93;;;;;;;;;;4915832;29;20032;-79
2022/01/31 07:46:14;;;;;;;26.57;5.40;;;;;;;;;;4923093;29;20056;-79
2022/01/31 07:48:40;;;;;;;22.17;4.40;;;;;;;;;;4909486;29;20091;-79
2022/01/31 07:51:05;;;;;;;28.10;4.30;;;;;;;;;;4925506;29;20060;-78
2022/01/31 07:53:30;;;;;;;27.60;4.73;;;;;;;;;;4926044;29;20028;-79
2022/01/31 07:55:56;;;;;;;23.17;5.93;;;;;;;;;;4915264;29;20032;-79
2022/01/31 07:58:21;;;;;;;31.23;5.27;;;;;;;;;;4925618;29;20032;-77
2022/01/31 08:00:47;;;;;;;20.90;4.70;;;;;;;;;;4926980;29;20024;-78
2022/01/31 08:03:13;;;;;;;30.50;6.27;;;;;;;;;;4915933;29;20034;-77
2022/01/31 08:05:38;;;;;;;34.07;4.87;;;;;;;;;;4927289;29;20044;-79
2022/01/31 08:08:04;;;;;;;24.27;5.50;;;;;;;;;;4909403;29;20020;-81
2022/01/31 08:10:31;;;;;;;32.08;5.43;;;;;;;;;;4925653;29;20043;-79
2022/01/31 08:12:57;;;;;;;28.33;5.85;;;;;;;;;;4924687;29;20024;-78
2022/01/31 08:15:27;;;;;;;23.73;5.53;;;;;;;;;;4926092;29;20035;-78
2022/01/31 08:17:52;;;;;;;24.05;6.47;;;;;;;;;;4925895;29;20071;-80
2022/01/31 08:20:18;;;;;;;21.00;5.33;;;;;;;;;;4919902;29;20024;-77
2022/01/31 08:22:43;;;;;;;29.03;7.03;;;;;;;;;;4908315;29;20445;-77
2022/01/31 08:25:14;;;;;;;24.77;5.20;;;;;;;;;;4916411;29;20030;-78
2022/01/31 08:27:40;;;;;;;26.53;5.00;;;;;;;;;;4913988;29;20024;-78
2022/01/31 08:30:13;;;;;;;25.65;5.68;;;;;;;;;;4918652;29;20051;-78
2022/01/31 08:32:44;;;;;;;30.73;5.47;;;;;;;;;;4906047;29;20541;-78
2022/01/31 08:37:52;;;;;;;30.30;6.20;;;;;;;;;;4921120;29;20023;-78
2022/01/31 08:40:18;;;;;;;23.67;5.87;;;;;;;;;;4919867;29;20020;-78
2022/01/31 08:42:43;;;;;;;32.33;6.90;;;;;;;;;;4920158;29;20031;-79
2022/01/31 08:45:08;;;;;;;23.15;6.32;;;;;;;;;;4920124;29;20502;-78
2022/01/31 08:47:34;;;;;;;31.38;8.90;;;;;;;;;;4904106;29;20055;-79
2022/01/31 08:49:59;;;;;;;44.55;9.55;;;;;;;;;;4919157;29;20123;-79
2022/01/31 08:52:25;;;;;;;34.60;8.73;;;;;;;;;;4920007;29;20020;-79
2022/01/31 08:54:50;;;;;;;33.95;8.48;;;;;;;;;;4905482;29;20405;-79
2022/01/31 08:57:15;;;;;;;29.42;9.98;;;;;;;;;;4913087;29;20389;-79
2022/01/31 08:59:44;;;;;;;33.13;10.55;;;;;;;;;;4903301;29;20082;-79
2022/01/31 09:02:14;;;;;;;;;;;;;;;;;;4899838;29;20040;-79
2022/01/31 09:04:49;;;;;;;30.55;8.35;;;;;;;;;;4904731;29;19935;-78
2022/01/31 09:07:19;;;;;;;30.80;6.57;;;;;;;;;;4912627;29;20111;-79
2022/01/31 09:09:47;;;;;;;30.27;7.10;;;;;;;;;;4902911;29;20032;-77
2022/01/31 09:12:16;;;;;;;25.90;7.30;;;;;;;;;;4917863;29;20441;-77
2022/01/31 09:14:41;;;;;;;29.02;7.63;;;;;;;;;;4907520;29;20043;-77
2022/01/31 09:17:06;;;;;;;32.72;7.80;;;;;;;;;;4922172;29;20021;-78
2022/01/31 09:19:31;;;;;;;30.30;8.02;;;;;;;;;;4902146;29;20068;-79
2022/01/31 09:21:57;;;;;;;26.52;7.88;;;;;;;;;;4919085;29;20044;-80
2022/01/31 09:24:22;;;;;;;28.80;9.35;;;;;;;;;;4911430;29;20016;-82
2022/01/31 09:26:48;;;;;;;30.83;7.47;;;;;;;;;;4906058;29;20024;-78
2022/01/31 09:29:13;;;;;;;34.08;8.15;;;;;;;;;;4907153;29;20024;-78
2022/01/31 09:31:39;;;;;;;28.73;7.85;;;;;;;;;;4912451;29;20028;-79
2022/01/31 09:34:06;;;;;;;35.00;8.50;;;;;;;;;;4918549;29;20394;-78
2022/01/31 09:36:31;;;;;;;27.90;8.40;;;;;;;;;;4919216;29;20024;-78
2022/01/31 09:38:57;;;;;;;19.52;7.60;;;;;;;;;;4914843;29;20021;-79
2022/01/31 09:41:25;;;;;;;25.77;7.93;;;;;;;;;;4910650;29;20047;-80
2022/01/31 09:46:47;;;;;;;20.67;6.97;;;;;;;;;;4919143;29;20059;-78
2022/01/31 09:49:04;;;;;;;24.88;7.55;;;;;;;;;;4919090;29;20170;-78
2022/01/31 09:51:29;;;;;;;30.90;7.65;;;;;;;;;;4918393;29;20484;-78
2022/01/31 09:53:56;;;;;;;16.52;6.80;;;;;;;;;;4919081;29;20099;-79
2022/01/31 09:56:25;;;;;;;23.58;7.10;;;;;;;;;;4921384;29;20103;-78
2022/01/31 09:58:51;;;;;;;20.75;5.95;;;;;;;;;;4917481;29;20052;-78
2022/01/31 10:01:19;;;;;;;22.25;7.72;;;;;;;;;;4907528;29;20080;-79
2022/01/31 10:03:45;;;;;;;26.10;7.65;;;;;;;;;;4909135;29;20116;-78
2022/01/31 10:06:26;;;;;;;17.77;7.03;;;;;;;;;;4920156;29;20032;-79
2022/01/31 10:09:10;;;;;;;16.30;5.90;;;;;;;;;;4907093;29;20606;-77
2022/01/31 10:11:45;;;;;;;16.50;6.50;;;;;;;;;;5001469;23;20070;-78
2022/01/31 10:16:54;;;;;;;13.80;5.63;;;;;;;;;;4950900;29;20043;-77
2022/01/31 10:19:20;;;;;;;15.93;4.82;;;;;;;;;;4933288;29;20035;-77
2022/01/31 10:24:58;;;;;;;11.75;4.50;;;;;;;;;;4924065;29;20032;-77
2022/01/31 10:27:29;;;;;;;12.93;4.77;;;;;;;;;;4918886;29;20036;-78
2022/01/31 10:29:55;;;;;;;13.70;4.97;;;;;;;;;;4913566;29;20032;-78
2022/01/31 10:32:33;;;;;;;8.43;4.22;;;;;;;;;;4916269;29;20075;-77
2022/01/31 10:35:00;;;;;;;12.35;4.40;;;;;;;;;;4915380;29;20016;-77
2022/01/31 10:37:27;;;;;;;9.55;4.72;;;;;;;;;;4915592;29;20079;-77
2022/01/31 10:51:09;;;;;;;10.35;5.03;;;;;;;;;;4897623;29;20451;-78
2022/01/31 10:53:42;;;;;;;12.10;4.80;;;;;;;;;;4909064;29;20039;-78
2022/01/31 10:56:07;;;;;;;11.57;5.13;;;;;;;;;;4902553;29;20031;-78
2022/01/31 10:58:33;;;;;;;11.32;4.68;;;;;;;;;;4916845;29;20028;-78
2022/01/31 11:01:11;;;;;;;9.20;4.65;;;;;;;;;;4916484;29;20045;-77
2022/01/31 11:03:36;;;;;;;8.45;4.05;;;;;;;;;;4906626;29;20020;-77
2022/01/31 11:06:05;;;;;;;10.90;5.50;;;;;;;;;;4916483;29;20046;-78
2022/01/31 11:08:30;;;;;;;10.77;4.93;;;;;;;;;;4899390;29;20020;-78
2022/01/31 11:10:56;;;;;;;10.93;5.55;;;;;;;;;;4915568;29;20552;-78
2022/01/31 11:13:22;;;;;;;13.57;6.18;;;;;;;;;;4918093;29;20052;-78
2022/01/31 11:15:48;;;;;;;9.65;5.32;;;;;;;;;;4913252;29;20076;-77
2022/01/31 11:18:13;;;;;;;10.52;5.10;;;;;;;;;;4920004;29;20028;-78
2022/01/31 11:20:43;;;;;;;9.77;4.55;;;;;;;;;;4920393;29;20075;-78
2022/01/31 11:23:09;;;;;;;11.70;5.88;;;;;;;;;;4920405;29;20500;-78
2022/01/31 11:25:35;;;;;;;16.27;6.35;;;;;;;;;;4909831;29;20020;-78
2022/01/31 11:28:02;;;;;;;12.88;6.13;;;;;;;;;;4920632;29;20028;-78
2022/01/31 11:30:28;;;;;;;15.77;6.13;;;;;;;;;;4919459;29;20103;-77
2022/01/31 11:32:53;;;;;;;13.93;6.15;;;;;;;;;;4920360;29;20107;-78
2022/01/31 11:35:22;;;;;;;13.48;6.30;;;;;;;;;;4921394;29;20110;-77
2022/01/31 11:37:47;;;;;;;;;;;;;;;;;;4921123;29;20024;-78
2022/01/31 11:40:14;;;;;;;15.74;6.36;;;;;;;;;;4903741;29;19911;-76
2022/01/31 11:42:44;;;;;;;16.92;7.43;;;;;;;;;;4915642;29;20020;-77
2022/01/31 11:45:13;;;;;;;18.05;7.10;;;;;;;;;;4921087;29;20028;-76
2022/01/31 11:47:39;;;;;;;17.80;6.95;;;;;;;;;;4908686;29;20389;-78
2022/01/31 11:50:06;;;;;;;19.63;8.13;;;;;;;;;;4920963;29;20017;-77
2022/01/31 11:52:33;;;;;;;14.65;6.82;;;;;;;;;;4908014;29;20506;-77
2022/01/31 11:55:00;;;;;;;20.42;12.20;;;;;;;;;;4927671;29;20026;-78
2022/01/31 11:57:28;;;;;;;20.67;7.68;;;;;;;;;;4903094;29;20044;-77
2022/01/31 12:00:10;;;;;;;20.27;8.50;;;;;;;;;;4920317;29;20020;-78
2022/01/31 12:02:46;;;;;;;21.45;8.23;;;;;;;;;;4919759;29;20016;-78
2022/01/31 12:05:18;;;;;;;13.75;7.13;;;;;;;;;;4919913;29;20083;-78
2022/01/31 12:07:44;;;;;;;17.92;7.22;;;;;;;;;;4922058;29;20012;-76
2022/01/31 12:10:17;;;;;;;13.90;7.05;;;;;;;;;;4919122;29;20047;-78
2022/01/31 12:12:49;;;;;;;16.10;7.50;;;;;;;;;;4920641;29;20031;-78
2022/01/31 12:15:31;;;;;;;17.83;7.28;;;;;;;;;;4903346;29;20045;-77
2022/01/31 12:21:59;;;;;;;10.50;6.10;;;;;;;;;;4902461;29;20508;-77
2022/01/31 12:23:28;;;;;;;11.75;6.47;;;;;;;;;;4900672;29;20064;-77
2022/01/31 12:25:53;;;;;;;17.25;6.10;;;;;;;;;;4885341;29;20028;-77
2022/01/31 12:28:39;;;;;;;16.05;5.72;;;;;;;;;;4902405;29;20024;-77
2022/01/31 12:31:23;;;;;;;17.55;5.38;;;;;;;;;;4912570;29;20032;-78
2022/01/31 12:33:48;;;;;;;12.95;5.97;;;;;;;;;;4921741;29;20028;-78
2022/01/31 12:36:24;;;;;;;15.63;6.07;;;;;;;;;;4921301;29;20383;-77
2022/01/31 12:38:49;;;;;;;19.35;6.38;;;;;;;;;;4920742;29;20513;-76
2022/01/31 12:41:29;;;;;;;17.63;6.18;;;;;;;;;;4921359;29;20020;-78
2022/01/31 12:44:14;;;;;;;17.98;7.20;;;;;;;;;;4918984;29;20047;-77
2022/01/31 12:46:47;;;;;;;14.82;6.03;;;;;;;;;;4918404;29;20016;-78
2022/01/31 12:49:13;;;;;;;19.20;6.25;;;;;;;;;;4918354;29;20140;-78
2022/01/31 12:51:57;;;;;;;14.73;6.25;;;;;;;;;;4919791;29;20035;-77
2022/01/31 12:54:22;;;;;;;16.90;6.43;;;;;;;;;;4921267;29;20100;-78
2022/01/31 12:56:47;;;;;;;13.30;5.80;;;;;;;;;;4923215;29;20043;-77
2022/01/31 12:59:14;;;;;;;19.33;6.20;;;;;;;;;;4917449;29;20079;-77
2022/01/31 13:01:58;;;;;;;15.65;7.50;;;;;;;;;;4931852;29;20068;-76
2022/01/31 13:04:29;;;;;;;12.45;5.97;;;;;;;;;;4920300;29;20023;-77
2022/01/31 13:06:57;;;;;;;13.13;4.88;;;;;;;;;;4918742;29;20397;-78
2022/01/31 13:09:37;;;;;;;13.45;5.45;;;;;;;;;;4918466;29;20020;-77
2022/01/31 13:12:04;;;;;;;7.82;4.63;;;;;;;;;;4916159;29;20032;-77
2022/01/31 13:14:37;;;;;;;13.20;5.60;;;;;;;;;;4918516;29;20244;-78
2022/01/31 13:17:08;;;;;;;14.10;6.22;;;;;;;;;;4918098;29;20024;-77
2022/01/31 13:19:35;;;;;;;16.52;5.00;;;;;;;;;;4918161;29;20294;-77
2022/01/31 13:22:09;;;;;;;12.45;5.30;;;;;;;;;;4916908;29;20030;-78
2022/01/31 13:24:37;;;;;;;20.88;5.68;;;;;;;;;;4917096;29;20497;-78
2022/01/31 13:27:02;;;;;;;11.73;5.30;;;;;;;;;;4917069;29;20370;-78
2022/01/31 13:29:32;;;;;;;9.90;5.47;;;;;;;;;;4917093;29;20023;-77
2022/01/31 13:31:58;;;;;;;14.02;5.70;;;;;;;;;;4899703;29;20052;-77
2022/01/31 13:34:33;;;;;;;13.85;5.45;;;;;;;;;;4898235;29;20017;-78
2022/01/31 13:36:58;;;;;;;14.00;5.70;;;;;;;;;;4896592;29;20083;-78
2022/01/31 13:39:24;;;;;;;13.77;5.65;;;;;;;;;;4899054;29;20107;-79
2022/01/31 13:41:49;;;;;;;7.75;4.43;;;;;;;;;;4897814;29;20039;-77
2022/01/31 13:44:14;;;;;;;9.30;4.35;;;;;;;;;;4898287;29;20164;-77
2022/01/31 13:46:48;;;;;;;10.13;4.43;;;;;;;;;;4898218;29;20032;-78
2022/01/31 13:49:18;;;;;;;11.38;4.93;;;;;;;;;;4897917;29;20055;-78
2022/01/31 13:51:46;;;;;;;8.43;4.57;;;;;;;;;;4897974;29;20496;-78
2022/01/31 13:54:14;;;;;;;11.60;5.07;;;;;;;;;;4896805;29;20434;-78
2022/01/31 13:56:44;;;;;;;8.63;4.57;;;;;;;;;;4898254;29;20255;-76
2022/01/31 13:59:09;;;;;;;10.63;4.28;;;;;;;;;;4920752;29;20278;-78
2022/01/31 14:01:35;;;;;;;10.40;4.28;;;;;;;;;;4919134;29;20020;-77
2022/01/31 14:04:00;;;;;;;9.23;4.20;;;;;;;;;;4920557;29;20074;-77
2022/01/31 14:06:26;;;;;;;10.30;4.07;;;;;;;;;;4935626;29;20027;-77
2022/01/31 14:08:55;;;;;;;11.25;4.95;;;;;;;;;;4935451;29;20102;-76
2022/01/31 14:11:21;;;;;;;11.82;4.13;;;;;;;;;;4935989;29;20036;-78
2022/01/31 14:13:48;;;;;;;8.63;4.18;;;;;;;;;;4935274;29;20024;-77
2022/01/31 14:16:15;;;;;;;9.90;4.63;;;;;;;;;;4914187;29;20024;-76
2022/01/31 14:18:43;;;;;;;9.88;3.20;;;;;;;;;;4916229;29;20047;-77
2022/01/31 14:21:08;;;;;;;13.82;7.10;;;;;;;;;;4916212;29;20024;-78
2022/01/31 14:23:34;;;;;;;12.93;6.40;;;;;;;;;;4916266;29;20024;-77
2022/01/31 14:26:00;;;;;;;9.82;5.35;;;;;;;;;;4916366;29;20035;-78
2022/01/31 14:28:57;;;;;;;12.70;5.97;;;;;;;;;;4916263;29;20024;-77
2022/01/31 14:31:28;;;;;;;16.40;7.10;;;;;;;;;;4895655;29;20037;-76
2022/01/31 14:33:54;;;;;;;15.40;6.95;;;;;;;;;;4897265;29;20021;-77
2022/01/31 14:36:21;;;;;;;22.05;10.63;;;;;;;;;;4897623;29;20059;-76
2022/01/31 14:47:17;;;;;;;16.98;6.75;;;;;;;;;;4900160;29;20457;-77
2022/01/31 14:49:47;;;;;;;17.33;8.35;;;;;;;;;;4901666;29;20040;-78
2022/01/31 14:52:12;;;;;;;15.30;7.07;;;;;;;;;;4901265;29;20049;-78
2022/01/31 14:54:40;;;;;;;16.90;7.65;;;;;;;;;;4901576;29;20021;-77
2022/01/31 14:57:06;;;;;;;15.57;7.30;;;;;;;;;;4901279;29;20466;-78
2022/01/31 14:59:31;;;;;;;14.23;7.30;;;;;;;;;;4901144;29;20043;-77
2022/01/31 15:01:57;;;;;;;14.20;7.18;;;;;;;;;;4904629;29;20031;-78
2022/01/31 15:04:24;;;;;;;17.15;7.68;;;;;;;;;;4884812;29;20021;-78
2022/01/31 15:06:50;;;;;;;16.20;6.75;;;;;;;;;;4900982;29;20024;-77